createdAt,value
2023-02-25T00:01:29.509Z,10.27
2023-02-25T00:03:56.669Z,10.25
2023-02-25T00:06:24.910Z,10.28
2023-02-25T00:08:53.131Z,10.34
2023-02-25T00:11:20.821Z,10.29
2023-02-25T00:13:47.636Z,10.22
2023-02-25T00:16:15.246Z,10.19
2023-02-25T00:18:44.468Z,10.26
2023-02-25T00:21:15.278Z,10.22
2023-02-25T00:23:46.894Z,10.26
2023-02-25T00:26:15.017Z,10.13
2023-02-25T00:28:42.850Z,10.13
2023-02-25T00:31:16.850Z,10.16
2023-02-25T00:33:43.734Z,10.15
2023-02-25T00:36:14.692Z,10.15
2023-02-25T00:38:41.606Z,10.18
2023-02-25T00:41:13.745Z,10.14
2023-02-25T00:43:42.342Z,10.05
2023-02-25T00:46:12.927Z,10.09
2023-02-25T00:48:40.532Z,10.05
2023-02-25T00:51:16.693Z,10.08
2023-02-25T00:53:44.257Z,10.00
2023-02-25T00:56:16.519Z,10.11
2023-02-25T00:58:47.972Z,10.02
2023-02-25T01:01:17.892Z,10.04
2023-02-25T01:03:46.538Z,10.13
2023-02-25T01:06:15.604Z,9.99
2023-02-25T01:08:42.611Z,10.04
2023-02-25T01:11:21.234Z,9.97
2023-02-25T01:13:50.886Z,9.85
2023-02-25T01:16:23.842Z,9.95
2023-02-25T01:18:56.055Z,9.85
2023-02-25T01:21:26.434Z,9.91
2023-02-25T01:23:59.865Z,9.92
2023-02-25T01:26:28.512Z,9.89
2023-02-25T01:28:55.898Z,9.89
2023-02-25T01:31:29.353Z,9.78
2023-02-25T01:34:01.373Z,9.66
2023-02-25T01:36:31.398Z,9.53
2023-02-25T01:38:58.950Z,9.64
2023-02-25T01:41:27.389Z,9.76
2023-02-25T01:44:21.832Z,9.74
2023-02-25T01:46:51.437Z,9.64
2023-02-25T01:49:31.897Z,9.60
2023-02-25T01:52:15.606Z,9.56
2023-02-25T01:54:45.377Z,9.52
2023-02-25T01:57:14.216Z,9.54
2023-02-25T01:59:43.088Z,9.57
2023-02-25T02:02:15.605Z,9.63
2023-02-25T02:04:44.572Z,9.66
2023-02-25T02:07:12.074Z,9.73
2023-02-25T02:09:40.380Z,9.80
2023-02-25T02:12:08.056Z,9.70
2023-02-25T02:14:38.858Z,9.81
2023-02-25T02:17:20.480Z,9.70
2023-02-25T02:19:50.351Z,9.74
2023-02-25T02:25:22.949Z,9.62
2023-02-25T02:28:40.361Z,9.63
2023-02-25T02:31:36.395Z,9.60
2023-02-25T02:34:09.191Z,9.62
2023-02-25T02:36:36.161Z,9.53
2023-02-25T02:39:08.004Z,9.59
2023-02-25T02:41:46.423Z,9.59
2023-02-25T02:44:27.039Z,9.57
2023-02-25T02:47:06.987Z,9.63
2023-02-25T02:49:46.122Z,9.60
2023-02-25T02:52:18.404Z,9.58
2023-02-25T02:54:52.415Z,9.57
2023-02-25T02:57:22.166Z,9.67
2023-02-25T02:59:56.188Z,9.70
2023-02-25T03:02:31.906Z,9.63
2023-02-25T03:05:07.704Z,9.69
2023-02-25T03:07:41.364Z,9.79
2023-02-25T03:10:14.153Z,9.71
2023-02-25T03:12:41.098Z,9.76
2023-02-25T03:15:09.081Z,9.79
2023-02-25T03:17:50.294Z,9.78
2023-02-25T03:20:25.361Z,9.70
2023-02-25T03:22:55.200Z,9.70
2023-02-25T03:25:30.952Z,9.77
2023-02-25T03:28:03.893Z,9.71
2023-02-25T03:30:41.545Z,9.67
2023-02-25T03:33:14.693Z,9.75
2023-02-25T03:35:43.919Z,9.57
2023-02-25T03:38:20.476Z,9.67
2023-02-25T03:40:50.076Z,9.53
2023-02-25T03:43:25.641Z,9.50
2023-02-25T03:45:54.354Z,9.48
2023-02-25T03:48:24.035Z,9.46
2023-02-25T03:51:01.468Z,9.51
2023-02-25T03:53:32.850Z,9.56
2023-02-25T03:56:13.745Z,9.56
2023-02-25T03:58:43.782Z,9.49
2023-02-25T04:01:23.703Z,9.53
2023-02-25T04:03:50.626Z,9.53
2023-02-25T04:06:23.234Z,9.38
2023-02-25T04:08:51.066Z,9.35
2023-02-25T04:11:17.987Z,9.30
2023-02-25T04:13:46.408Z,9.37
2023-02-25T04:16:14.383Z,9.33
2023-02-25T04:18:42.347Z,9.38
2023-02-25T04:21:10.256Z,9.48
2023-02-25T04:23:37.200Z,9.53
2023-02-25T04:26:04.106Z,9.45
2023-02-25T04:28:30.983Z,9.46
2023-02-25T04:30:58.030Z,9.41
2023-02-25T04:33:25.021Z,9.51
2023-02-25T04:35:52.078Z,9.46
2023-02-25T04:38:18.845Z,9.45
2023-02-25T04:40:45.589Z,9.57
2023-02-25T04:43:12.372Z,9.67
2023-02-25T04:45:39.128Z,9.59
2023-02-25T04:48:05.982Z,9.54
2023-02-25T04:50:32.868Z,9.53
2023-02-25T04:53:02.808Z,9.41
2023-02-25T04:55:30.293Z,9.44
2023-02-25T04:57:57.170Z,9.35
2023-02-25T05:00:24.381Z,9.52
2023-02-25T05:02:51.363Z,9.45
2023-02-25T05:05:18.839Z,9.47
2023-02-25T05:07:45.744Z,9.52
2023-02-25T05:10:14.958Z,9.57
2023-02-25T05:12:42.269Z,9.64
2023-02-25T05:15:10.751Z,9.61
2023-02-25T05:17:37.480Z,9.73
2023-02-25T05:20:12.136Z,9.73
2023-02-25T05:22:40.237Z,9.80
2023-02-25T05:25:08.568Z,9.86
2023-02-25T05:27:35.520Z,9.92
2023-02-25T05:30:02.511Z,9.85
2023-02-25T05:32:31.813Z,9.95
2023-02-25T05:34:58.735Z,9.86
2023-02-25T05:37:25.957Z,9.83
2023-02-25T05:39:52.774Z,9.73
2023-02-25T05:42:19.545Z,9.76
2023-02-25T05:44:46.312Z,9.76
2023-02-25T05:47:15.296Z,9.80
2023-02-25T05:49:42.869Z,9.83
2023-02-25T05:52:10.970Z,9.85
2023-02-25T05:54:37.830Z,9.94
2023-02-25T05:57:04.803Z,9.96
2023-02-25T05:59:31.935Z,9.92
2023-02-25T06:01:58.799Z,9.81
2023-02-25T06:04:25.664Z,9.80
2023-02-25T06:06:52.442Z,9.80
2023-02-25T06:09:20.250Z,9.76
2023-02-25T06:11:48.456Z,9.69
2023-02-25T06:14:16.202Z,9.61
2023-02-25T06:16:43.327Z,9.61
2023-02-25T06:19:12.287Z,9.67
2023-02-25T06:21:39.486Z,9.68
2023-02-25T06:24:06.693Z,9.63
2023-02-25T06:26:33.526Z,9.62
2023-02-25T06:29:00.254Z,9.56
2023-02-25T06:31:27.526Z,9.48
2023-02-25T06:33:55.133Z,9.41
2023-02-25T06:36:22.581Z,9.31
2023-02-25T06:38:49.503Z,9.14
2023-02-25T06:41:19.773Z,9.20
2023-02-25T06:43:51.982Z,9.14
2023-02-25T06:46:22.105Z,9.12
2023-02-25T06:48:49.163Z,9.18
2023-02-25T06:51:16.390Z,9.14
2023-02-25T06:53:44.749Z,9.17
2023-02-25T06:56:13.188Z,9.31
2023-02-25T06:58:40.998Z,9.13
2023-02-25T07:01:10.080Z,9.05
2023-02-25T07:03:37.511Z,9.00
2023-02-25T07:06:04.717Z,9.00
2023-02-25T07:08:31.812Z,9.17
2023-02-25T07:11:17.236Z,9.34
2023-02-25T07:13:48.163Z,9.43
2023-02-25T07:16:16.942Z,9.42
2023-02-25T07:18:44.820Z,9.50
2023-02-25T07:21:12.489Z,9.56
2023-02-25T07:23:39.367Z,9.58
2023-02-25T07:26:08.005Z,9.69
2023-02-25T07:28:35.554Z,9.81
2023-02-25T07:31:04.348Z,9.87
2023-02-25T07:33:31.242Z,9.79
2023-02-25T07:35:58.525Z,9.87
2023-02-25T07:38:25.551Z,9.87
2023-02-25T07:40:52.297Z,9.81
2023-02-25T07:43:19.033Z,9.68
2023-02-25T07:45:45.953Z,9.61
2023-02-25T07:48:12.694Z,9.73
2023-02-25T07:50:39.483Z,9.70
2023-02-25T07:53:06.446Z,9.65
2023-02-25T07:55:33.224Z,9.46
2023-02-25T07:58:00.032Z,9.46
2023-02-25T08:00:27.891Z,9.41
2023-02-25T08:02:55.224Z,9.57
2023-02-25T08:05:23.992Z,9.46
2023-02-25T08:07:51.210Z,9.29
2023-02-25T08:10:18.160Z,9.46
2023-02-25T08:12:44.978Z,9.50
2023-02-25T08:15:11.853Z,9.46
2023-02-25T08:17:38.668Z,9.51
2023-02-25T08:20:06.300Z,9.54
2023-02-25T08:22:33.067Z,9.64
2023-02-25T08:24:59.823Z,9.65
2023-02-25T08:27:26.881Z,9.80
2023-02-25T08:29:53.763Z,9.84
2023-02-25T08:32:20.758Z,9.94
2023-02-25T08:34:50.948Z,9.96
2023-02-25T08:37:17.724Z,9.95
2023-02-25T08:39:44.487Z,10.10
2023-02-25T08:42:18.876Z,10.17
2023-02-25T08:44:45.636Z,10.26
2023-02-25T08:47:12.783Z,10.35
2023-02-25T08:49:40.234Z,10.35
2023-02-25T08:52:10.023Z,10.32
2023-02-25T08:54:36.808Z,10.23
2023-02-25T08:57:03.666Z,10.25
2023-02-25T08:59:35.914Z,10.42
2023-02-25T09:02:07.428Z,10.51
2023-02-25T09:04:34.519Z,10.58
2023-02-25T09:07:02.256Z,10.64
2023-02-25T09:09:29.594Z,10.70
2023-02-25T09:11:56.470Z,10.60
2023-02-25T09:14:23.286Z,10.68
2023-02-25T09:16:50.267Z,10.66
2023-02-25T09:19:18.460Z,10.82
2023-02-25T09:21:49.232Z,10.78
2023-02-25T09:24:16.915Z,10.94
2023-02-25T09:26:43.693Z,11.05
2023-02-25T09:29:10.626Z,11.00
2023-02-25T09:31:38.721Z,11.01
2023-02-25T09:34:08.866Z,11.05
2023-02-25T09:36:35.879Z,11.08
2023-02-25T09:39:03.062Z,11.13
2023-02-25T09:41:51.251Z,11.14
2023-02-25T09:44:23.518Z,11.13
2023-02-25T09:47:10.547Z,10.89
2023-02-25T09:49:42.885Z,10.82
2023-02-25T09:52:22.601Z,10.75
2023-02-25T09:55:00.839Z,10.58
2023-02-25T09:57:29.630Z,10.54
2023-02-25T09:59:56.547Z,10.63
2023-02-25T10:02:51.531Z,10.67
2023-02-25T10:05:39.241Z,10.66
2023-02-25T10:08:08.822Z,10.73
2023-02-25T10:10:53.271Z,10.86
2023-02-25T10:13:41.230Z,10.90
2023-02-25T10:16:26.594Z,10.82
2023-02-25T10:19:01.725Z,10.73
2023-02-25T10:21:42.696Z,10.59
2023-02-25T10:24:30.757Z,10.68
2023-02-25T10:27:33.793Z,10.73
2023-02-25T10:30:07.101Z,10.79
2023-02-25T10:32:37.227Z,10.80
2023-02-25T10:35:25.715Z,10.66
2023-02-25T10:37:53.266Z,10.57
2023-02-25T10:40:23.167Z,10.36
2023-02-25T10:42:56.587Z,10.46
2023-02-25T10:45:27.220Z,10.46
2023-02-25T10:48:16.590Z,10.64
2023-02-25T10:50:46.183Z,10.85
2023-02-25T10:53:14.691Z,10.81
2023-02-25T10:55:51.964Z,10.77
2023-02-25T10:58:44.503Z,10.94
2023-02-25T11:01:22.682Z,10.99
2023-02-25T11:03:58.965Z,10.86
2023-02-25T11:06:29.439Z,10.77
2023-02-25T11:08:59.144Z,10.74
2023-02-25T11:11:32.479Z,10.81
2023-02-25T11:14:07.050Z,10.90
2023-02-25T11:16:37.101Z,11.08
2023-02-25T11:19:18.159Z,10.94
2023-02-25T11:21:45.745Z,11.05
2023-02-25T11:24:20.121Z,11.00
2023-02-25T11:26:49.492Z,11.17
2023-02-25T11:29:29.164Z,11.26
2023-02-25T11:32:05.210Z,11.40
2023-02-25T11:34:32.680Z,11.50
2023-02-25T11:37:31.419Z,11.68
2023-02-25T11:39:59.259Z,11.73
2023-02-25T11:42:30.070Z,11.88
2023-02-25T11:45:04.701Z,12.00
2023-02-25T11:47:34.940Z,12.17
2023-02-25T11:50:27.833Z,12.32
2023-02-25T11:53:13.412Z,12.40
2023-02-25T11:55:40.146Z,12.62
2023-02-25T11:58:18.895Z,12.58
2023-02-25T12:00:48.581Z,12.71
2023-02-25T12:03:46.279Z,12.68
2023-02-25T12:06:32.742Z,12.72
2023-02-25T12:09:14.290Z,12.71
2023-02-25T12:11:58.411Z,12.72
2023-02-25T12:14:43.060Z,12.92
2023-02-25T12:17:34.384Z,13.03
2023-02-25T12:20:40.708Z,13.16
2023-02-25T12:23:40.068Z,13.22
2023-02-25T12:26:44.985Z,13.16
2023-02-25T12:29:38.896Z,13.06
2023-02-25T12:32:05.787Z,13.06
2023-02-25T12:35:07.002Z,13.06
2023-02-25T12:37:53.717Z,13.05
2023-02-25T12:40:29.593Z,13.20
2023-02-25T12:43:06.990Z,13.35
2023-02-25T12:45:38.819Z,13.53
2023-02-25T12:48:25.249Z,13.53
2023-02-25T12:51:16.563Z,13.66
2023-02-25T12:54:02.056Z,13.79
2023-02-25T12:56:57.970Z,13.89
2023-02-25T12:59:46.546Z,13.86
2023-02-25T13:02:50.683Z,14.02
2023-02-25T13:05:41.972Z,13.99
2023-02-25T13:08:50.488Z,14.12
2023-02-25T13:11:31.253Z,14.10
2023-02-25T13:14:25.738Z,14.16
2023-02-25T13:16:58.914Z,14.29
2023-02-25T13:19:25.634Z,14.30
2023-02-25T13:22:31.757Z,14.29
2023-02-25T13:25:24.930Z,14.27
2023-02-25T13:28:05.482Z,14.14
2023-02-25T13:30:47.209Z,14.09
2023-02-25T13:33:26.554Z,14.17
2023-02-25T13:36:02.655Z,14.22
2023-02-25T13:38:50.970Z,14.26
2023-02-25T13:41:39.217Z,14.16
2023-02-25T13:44:24.383Z,14.06
2023-02-25T13:47:13.039Z,14.07
2023-02-25T13:50:17.211Z,14.04
2023-02-25T13:53:01.772Z,14.08
2023-02-25T13:56:02.310Z,14.14
2023-02-25T13:58:41.502Z,13.96
2023-02-25T14:01:32.478Z,14.12
2023-02-25T14:04:11.000Z,14.34
2023-02-25T14:07:05.502Z,14.42
2023-02-25T14:09:47.040Z,14.51
2023-02-25T14:12:22.229Z,14.59
2023-02-25T14:15:00.841Z,14.72
2023-02-25T14:17:56.576Z,14.61
2023-02-25T14:20:30.703Z,14.40
2023-02-25T14:23:25.290Z,14.42
2023-02-25T14:26:12.360Z,14.59
2023-02-25T14:29:05.357Z,14.51
2023-02-25T14:31:55.221Z,14.62
2023-02-25T14:34:40.791Z,14.50
2023-02-25T14:37:13.557Z,14.63
2023-02-25T14:40:06.720Z,14.78
2023-02-25T14:42:50.310Z,14.80
2023-02-25T14:45:32.803Z,14.78
2023-02-25T14:48:07.631Z,14.82
2023-02-25T14:50:51.215Z,14.84
2023-02-25T14:53:27.449Z,14.62
2023-02-25T14:56:09.319Z,14.88
2023-02-25T14:58:51.312Z,14.97
2023-02-25T15:01:53.494Z,15.12
2023-02-25T15:04:26.506Z,15.30
2023-02-25T15:07:18.026Z,15.38
2023-02-25T15:10:17.569Z,15.44
2023-02-25T15:13:26.144Z,15.43
2023-02-25T15:16:14.546Z,15.17
2023-02-25T15:19:05.991Z,15.32
2023-02-25T15:21:49.698Z,15.36
2023-02-25T15:24:28.458Z,15.24
2023-02-25T15:26:56.809Z,15.30
2023-02-25T15:29:29.576Z,15.20
2023-02-25T15:32:25.310Z,15.31
2023-02-25T15:35:00.029Z,15.32
2023-02-25T15:37:32.793Z,15.15
2023-02-25T15:40:24.341Z,15.23
2023-02-25T15:42:58.462Z,15.25
2023-02-25T15:45:36.704Z,15.33
2023-02-25T15:48:12.593Z,15.48
2023-02-25T15:50:42.218Z,15.28
2023-02-25T15:53:23.557Z,15.28
2023-02-25T15:55:51.500Z,15.55
2023-02-25T15:58:24.139Z,15.63
2023-02-25T16:00:55.182Z,15.63
2023-02-25T16:03:38.409Z,15.64
2023-02-25T16:06:39.065Z,15.58
2023-02-25T16:09:17.935Z,15.72
2023-02-25T16:11:51.518Z,15.82
2023-02-25T16:14:23.298Z,15.75
2023-02-25T16:17:05.465Z,15.85
2023-02-25T16:19:36.289Z,15.69
2023-02-25T16:22:07.133Z,15.43
2023-02-25T16:24:36.801Z,15.49
2023-02-25T16:27:15.860Z,15.61
2023-02-25T16:29:55.255Z,15.77
2023-02-25T16:32:44.093Z,15.78
2023-02-25T16:35:28.825Z,15.66
2023-02-25T16:38:06.747Z,15.59
2023-02-25T16:40:42.735Z,15.29
2023-02-25T16:43:16.295Z,15.22
2023-02-25T16:46:04.847Z,15.33
2023-02-25T16:48:39.038Z,15.38
2023-02-25T16:51:12.787Z,15.42
2023-02-25T16:53:44.551Z,15.52
2023-02-25T16:56:19.983Z,15.53
2023-02-25T16:59:06.870Z,15.64
2023-02-25T17:01:36.482Z,15.70
2023-02-25T17:04:16.666Z,15.75
2023-02-25T17:06:43.713Z,15.66
2023-02-25T17:09:30.667Z,15.45
2023-02-25T17:11:58.578Z,15.42
2023-02-25T17:14:25.775Z,15.30
2023-02-25T17:16:53.312Z,15.21
2023-02-25T17:19:21.983Z,15.21
2023-02-25T17:21:55.948Z,15.08
2023-02-25T17:24:27.636Z,15.08
2023-02-25T17:26:55.238Z,14.85
2023-02-25T17:29:22.668Z,14.80
2023-02-25T17:31:54.909Z,14.78
2023-02-25T17:34:35.090Z,14.75
2023-02-25T17:37:06.199Z,14.51
2023-02-25T17:39:33.858Z,14.47
2023-02-25T17:42:00.779Z,14.52
2023-02-25T17:44:36.577Z,14.46
2023-02-25T17:47:04.567Z,14.45
2023-02-25T17:49:33.556Z,14.45
2023-02-25T17:52:21.629Z,14.40
2023-02-25T17:54:58.433Z,14.23
2023-02-25T17:57:27.033Z,14.24
2023-02-25T17:59:56.865Z,14.15
2023-02-25T18:02:42.087Z,14.05
2023-02-25T18:05:18.479Z,13.98
2023-02-25T18:08:18.737Z,13.98
2023-02-25T18:10:55.223Z,14.01
2023-02-25T18:13:28.834Z,13.90
2023-02-25T18:16:12.470Z,13.87
2023-02-25T18:18:40.504Z,13.84
2023-02-25T18:21:11.249Z,13.81
2023-02-25T18:23:38.226Z,13.83
2023-02-25T18:26:26.672Z,13.87
2023-02-25T18:28:55.659Z,13.81
2023-02-25T18:31:22.525Z,13.76
2023-02-25T18:33:49.896Z,13.69
2023-02-25T18:36:23.933Z,13.54
2023-02-25T18:38:52.738Z,13.58
2023-02-25T18:41:19.567Z,13.60
2023-02-25T18:43:46.793Z,13.42
2023-02-25T18:46:13.869Z,13.34
2023-02-25T18:48:40.702Z,13.21
2023-02-25T18:51:14.213Z,13.09
2023-02-25T18:53:41.924Z,12.87
2023-02-25T18:56:15.297Z,13.02
2023-02-25T18:58:43.006Z,12.88
2023-02-25T19:01:20.031Z,12.95
2023-02-25T19:03:47.030Z,13.04
2023-02-25T19:06:13.868Z,12.90
2023-02-25T19:08:40.710Z,13.03
2023-02-25T19:11:07.531Z,12.94
2023-02-25T19:13:40.568Z,12.92
2023-02-25T19:16:07.856Z,12.96
2023-02-25T19:18:36.758Z,12.92
2023-02-25T19:21:04.738Z,12.82
2023-02-25T19:23:31.696Z,12.92
2023-02-25T19:26:00.524Z,12.92
2023-02-25T19:28:27.311Z,12.96
2023-02-25T19:30:54.213Z,12.85
2023-02-25T19:33:21.239Z,12.93
2023-02-25T19:35:48.295Z,12.90
2023-02-25T19:38:18.556Z,12.82
2023-02-25T19:40:47.646Z,12.79
2023-02-25T19:43:15.936Z,12.83
2023-02-25T19:45:43.531Z,12.67
2023-02-25T19:48:10.780Z,12.57
2023-02-25T19:50:40.859Z,12.41
2023-02-25T19:53:07.705Z,12.49
2023-02-25T19:55:34.528Z,12.50
2023-02-25T19:58:02.046Z,12.44
2023-02-25T20:00:28.908Z,12.26
2023-02-25T20:02:56.315Z,12.28
2023-02-25T20:05:23.645Z,12.13
2023-02-25T20:07:51.399Z,12.13
2023-02-25T20:10:18.827Z,12.21
2023-02-25T20:12:46.936Z,12.18
2023-02-25T20:15:15.211Z,12.14
2023-02-25T20:17:43.268Z,12.04
2023-02-25T20:20:11.822Z,11.89
2023-02-25T20:22:39.554Z,11.90
2023-02-25T20:25:08.055Z,12.07
2023-02-25T20:27:37.033Z,12.04
2023-02-25T20:30:06.602Z,11.88
2023-02-25T20:32:34.164Z,11.82
2023-02-25T20:35:01.380Z,11.78
2023-02-25T20:37:37.276Z,11.79
2023-02-25T20:40:08.118Z,11.82
2023-02-25T20:42:35.057Z,11.73
2023-02-25T20:45:02.245Z,11.77
2023-02-25T20:47:37.289Z,11.76
2023-02-25T20:50:08.067Z,11.76
2023-02-25T20:52:34.902Z,11.68
2023-02-25T20:55:01.761Z,11.55
2023-02-25T20:57:28.674Z,11.70
2023-02-25T20:59:55.464Z,11.64
2023-02-25T21:02:23.011Z,11.67
2023-02-25T21:04:50.575Z,11.64
2023-02-25T21:07:17.700Z,11.60
2023-02-25T21:09:44.589Z,11.67
2023-02-25T21:12:11.445Z,11.53
2023-02-25T21:14:38.216Z,11.40
2023-02-25T21:17:09.376Z,11.41
2023-02-25T21:19:38.681Z,11.23
2023-02-25T21:22:06.613Z,11.19
2023-02-25T21:24:33.773Z,11.21
2023-02-25T21:27:01.505Z,11.28
2023-02-25T21:29:28.530Z,11.38
2023-02-25T21:31:55.515Z,11.34
2023-02-25T21:34:22.410Z,11.39
2023-02-25T21:36:49.142Z,11.37
2023-02-25T21:39:16.297Z,11.36
2023-02-25T21:41:44.793Z,11.38
2023-02-25T21:44:12.642Z,11.55
2023-02-25T21:46:40.313Z,11.50
2023-02-25T21:49:07.056Z,11.62
2023-02-25T21:51:33.957Z,11.61
2023-02-25T21:54:01.782Z,11.58
2023-02-25T21:56:30.876Z,11.44
2023-02-25T21:59:00.592Z,11.50
2023-02-25T22:01:34.354Z,11.53
2023-02-25T22:04:01.375Z,11.50
2023-02-25T22:06:28.666Z,11.56
2023-02-25T22:08:56.772Z,11.65
2023-02-25T22:11:32.649Z,11.85
2023-02-25T22:14:00.833Z,12.00
2023-02-25T22:16:28.054Z,12.15
2023-02-25T22:18:56.159Z,12.22
2023-02-25T22:21:31.024Z,12.33
2023-02-25T22:24:00.778Z,12.40
2023-02-25T22:26:30.655Z,12.45
2023-02-25T22:29:02.249Z,12.47
2023-02-25T22:31:29.852Z,12.19
2023-02-25T22:33:57.517Z,12.22
2023-02-25T22:36:25.182Z,12.32
2023-02-25T22:38:52.624Z,12.33
2023-02-25T22:41:21.016Z,12.39
2023-02-25T22:43:48.980Z,12.48
2023-02-25T22:46:19.437Z,12.51
2023-02-25T22:48:48.239Z,12.54
2023-02-25T22:51:30.997Z,12.41
2023-02-25T22:53:58.324Z,12.34
2023-02-25T22:56:26.068Z,12.36
2023-02-25T22:58:53.786Z,12.40
2023-02-25T23:01:22.424Z,12.42
2023-02-25T23:03:50.226Z,12.44
2023-02-25T23:06:18.809Z,12.44
2023-02-25T23:08:46.023Z,12.42
2023-02-25T23:11:27.654Z,12.42
2023-02-25T23:13:58.363Z,12.39
2023-02-25T23:16:28.743Z,12.39
2023-02-25T23:18:58.178Z,12.39
2023-02-25T23:21:25.788Z,12.39
2023-02-25T23:23:55.430Z,12.41
2023-02-25T23:26:25.568Z,12.34
2023-02-25T23:29:00.343Z,12.33
2023-02-25T23:31:33.833Z,12.19
2023-02-25T23:34:03.318Z,12.21
2023-02-25T23:36:30.115Z,12.22
2023-02-25T23:38:59.303Z,12.23
2023-02-25T23:41:27.481Z,12.25
2023-02-25T23:43:56.002Z,12.30
2023-02-25T23:46:24.781Z,12.29
2023-02-25T23:48:58.619Z,12.31
2023-02-25T23:51:26.007Z,12.30
2023-02-25T23:53:54.947Z,12.29
2023-02-25T23:56:23.036Z,12.29
2023-02-25T23:58:51.451Z,12.26
